Terminal Aerodrome Forecast
Issued by NWS Wichita, KS

Home | Current Version | Previous Version | Text Only | Print | Product List | Glossary Off
Versions: 1 2 3 4 5 6 7 8 9 10 11 12 13 14 15 16 17

000
FTUS43 KICT 300522
TAFICT
TAF
KICT 300522Z 3006/3106 03006KT P6SM SKC
     FM300900 03005KT 3SM BR SCT015
      TEMPO 3011/3015 BKN015
     FM301500 07006KT P6SM BKN025
     FM301900 12007KT P6SM SCT035=

USA.gov is the U.S. government's official web portal to all federal, state and local government web resources and services.